createdAt,value
2018-01-14T00:00:56.528Z,1.12
2018-01-14T00:01:56.440Z,1.11
2018-01-14T00:02:56.365Z,1.18
2018-01-14T00:03:56.260Z,1.18
2018-01-14T00:04:56.194Z,1.18
2018-01-14T00:05:57.067Z,1.15
2018-01-14T00:06:56.017Z,1.15
2018-01-14T00:07:55.921Z,1.20
2018-01-14T00:08:55.848Z,1.11
2018-01-14T00:09:55.769Z,1.15
2018-01-14T00:10:55.676Z,1.19
2018-01-14T00:11:55.592Z,1.19
2018-01-14T00:12:55.506Z,1.18
2018-01-14T00:13:55.418Z,1.12
2018-01-14T00:14:55.339Z,1.12
2018-01-14T00:15:55.243Z,1.16
2018-01-14T00:16:55.166Z,1.18
2018-01-14T00:17:55.076Z,1.19
2018-01-14T00:18:54.996Z,1.19
2018-01-14T00:19:54.902Z,1.18
2018-01-14T00:20:54.833Z,1.18
2018-01-14T00:21:54.735Z,1.11
2018-01-14T00:22:54.664Z,1.16
2018-01-14T00:23:54.560Z,1.10
2018-01-14T00:24:54.487Z,1.11
2018-01-14T00:25:54.395Z,1.20
2018-01-14T00:26:54.329Z,1.15
2018-01-14T00:27:54.226Z,1.15
2018-01-14T00:28:54.149Z,1.12
2018-01-14T00:29:54.058Z,1.15
2018-01-14T00:30:53.977Z,1.18
2018-01-14T00:31:53.885Z,1.12
2018-01-14T00:32:53.806Z,1.12
2018-01-14T00:33:53.715Z,1.11
2018-01-14T00:34:53.639Z,1.10
2018-01-14T00:35:53.561Z,1.11
2018-01-14T00:36:53.473Z,1.10
2018-01-14T00:37:53.380Z,1.12
2018-01-14T00:38:53.310Z,1.11
2018-01-14T00:39:53.209Z,1.19
2018-01-14T00:40:53.135Z,1.15
2018-01-14T00:41:53.038Z,1.16
2018-01-14T00:42:52.963Z,1.16
2018-01-14T00:43:52.870Z,1.19
2018-01-14T00:44:52.796Z,1.20
2018-01-14T00:45:52.701Z,1.20
2018-01-14T00:46:52.622Z,1.19
2018-01-14T00:47:52.538Z,1.15
2018-01-14T00:48:52.456Z,1.19
2018-01-14T00:49:52.358Z,1.18
2018-01-14T00:50:52.284Z,1.12
2018-01-14T00:51:52.190Z,1.11
2018-01-14T00:52:52.110Z,1.15
2018-01-14T00:53:52.020Z,1.16
2018-01-14T00:54:51.944Z,1.19
2018-01-14T00:55:51.849Z,1.18
2018-01-14T00:56:51.772Z,1.16
2018-01-14T00:57:51.694Z,1.12
2018-01-14T00:58:51.610Z,1.15
2018-01-14T00:59:51.514Z,1.15
2018-01-14T01:00:51.436Z,1.11
2018-01-14T01:01:51.350Z,1.07
2018-01-14T01:02:51.261Z,1.04
2018-01-14T01:03:51.167Z,1.16
2018-01-14T01:04:51.106Z,1.15
2018-01-14T01:05:51.002Z,1.10
2018-01-14T01:06:50.925Z,1.11
2018-01-14T01:07:50.833Z,1.12
2018-01-14T01:08:50.756Z,1.16
2018-01-14T01:09:50.663Z,1.11
2018-01-14T01:10:50.585Z,1.19
2018-01-14T01:11:50.490Z,1.23
2018-01-14T01:12:50.419Z,1.10
2018-01-14T01:13:50.331Z,1.18
2018-01-14T01:14:50.244Z,1.18
2018-01-14T01:15:50.154Z,1.15
2018-01-14T01:16:50.083Z,1.11
2018-01-14T01:17:49.982Z,1.05
2018-01-14T01:18:49.908Z,1.10
2018-01-14T01:19:49.814Z,1.16
2018-01-14T01:20:49.736Z,1.11
2018-01-14T01:21:49.644Z,1.12
2018-01-14T01:22:49.565Z,1.23
2018-01-14T01:23:49.477Z,1.12
2018-01-14T01:24:49.396Z,1.11
2018-01-14T01:25:49.299Z,1.11
2018-01-14T01:26:49.229Z,1.15
2018-01-14T01:27:49.143Z,1.20
2018-01-14T01:28:49.053Z,1.20
2018-01-14T01:29:48.963Z,1.16
2018-01-14T01:30:48.884Z,1.04
2018-01-14T01:31:48.793Z,1.08
2018-01-14T01:32:48.719Z,1.12
2018-01-14T01:33:48.624Z,1.19
2018-01-14T01:34:48.548Z,1.15
2018-01-14T01:35:48.456Z,1.12
2018-01-14T01:36:48.381Z,1.20
2018-01-14T01:37:48.283Z,1.18
2018-01-14T01:38:48.214Z,1.15
2018-01-14T01:39:48.115Z,1.11
2018-01-14T01:40:48.041Z,1.18
2018-01-14T01:41:47.949Z,1.12
2018-01-14T01:42:47.866Z,1.15
2018-01-14T01:43:47.777Z,1.07
2018-01-14T01:44:47.696Z,1.07
2018-01-14T01:45:47.607Z,1.08
2018-01-14T01:46:47.531Z,1.12
2018-01-14T01:47:47.434Z,1.11
2018-01-14T01:48:47.358Z,1.20
2018-01-14T01:49:47.268Z,1.10
2018-01-14T01:50:47.192Z,1.22
2018-01-14T01:51:47.099Z,1.08
2018-01-14T01:52:47.019Z,1.12
2018-01-14T01:53:46.966Z,1.15
2018-01-14T01:54:46.850Z,1.19
2018-01-14T01:55:46.758Z,1.19
2018-01-14T01:56:46.680Z,1.12
2018-01-14T01:57:46.588Z,1.19
2018-01-14T01:58:46.511Z,1.04
2018-01-14T01:59:46.417Z,1.19
2018-01-14T02:00:46.339Z,1.11
2018-01-14T02:01:46.254Z,1.08
2018-01-14T02:02:46.170Z,1.11
2018-01-14T02:03:46.081Z,1.15
2018-01-14T02:04:46.002Z,1.18
2018-01-14T02:05:45.909Z,1.10
2018-01-14T02:06:45.832Z,1.12
2018-01-14T02:07:45.740Z,1.10
2018-01-14T02:08:45.660Z,1.20
2018-01-14T02:09:45.571Z,1.19
2018-01-14T02:10:45.493Z,1.16
2018-01-14T02:11:45.398Z,1.16
2018-01-14T02:12:45.326Z,1.16
2018-01-14T02:13:45.236Z,1.18
2018-01-14T02:14:45.153Z,1.15
2018-01-14T02:15:45.061Z,1.20
2018-01-14T02:16:44.988Z,1.23
2018-01-14T02:17:44.886Z,1.20
2018-01-14T02:18:44.810Z,1.22
2018-01-14T02:19:44.717Z,1.25
2018-01-14T02:20:44.648Z,1.25
2018-01-14T02:21:44.554Z,1.23
2018-01-14T02:22:44.477Z,1.20
2018-01-14T02:23:44.391Z,1.20
2018-01-14T02:24:44.311Z,1.19
2018-01-14T02:25:44.212Z,1.25
2018-01-14T02:26:44.137Z,1.26
2018-01-14T02:27:44.042Z,1.20
2018-01-14T02:28:43.965Z,1.22
2018-01-14T02:29:43.868Z,1.23
2018-01-14T02:30:43.801Z,1.30
2018-01-14T02:31:43.714Z,1.22
2018-01-14T02:32:43.625Z,1.12
2018-01-14T02:33:43.531Z,1.12
2018-01-14T02:34:43.462Z,1.25
2018-01-14T02:35:43.361Z,1.19
2018-01-14T02:36:43.286Z,1.18
2018-01-14T02:37:43.194Z,1.15
2018-01-14T02:38:43.122Z,1.18
2018-01-14T02:39:43.025Z,1.19
2018-01-14T02:40:42.947Z,1.15
2018-01-14T02:41:42.854Z,1.19
2018-01-14T02:42:42.774Z,1.16
2018-01-14T02:43:42.688Z,1.19
2018-01-14T02:44:42.611Z,1.20
2018-01-14T02:45:42.527Z,1.12
2018-01-14T02:46:42.435Z,1.15
2018-01-14T02:47:42.347Z,1.16
2018-01-14T02:48:42.311Z,1.20
2018-01-14T02:49:42.178Z,1.11
2018-01-14T02:50:42.095Z,1.22
2018-01-14T02:51:42.008Z,1.16
2018-01-14T02:52:41.930Z,1.16
2018-01-14T02:53:41.837Z,1.08
2018-01-14T02:54:41.771Z,1.22
2018-01-14T02:55:41.674Z,1.25
2018-01-14T02:56:41.597Z,1.28
2018-01-14T02:57:41.498Z,1.25
2018-01-14T02:58:41.421Z,1.28
2018-01-14T02:59:41.328Z,1.29
2018-01-14T03:00:41.252Z,1.25
2018-01-14T03:01:41.159Z,1.23
2018-01-14T03:02:41.090Z,1.25
2018-01-14T03:03:40.986Z,1.25
2018-01-14T03:04:40.911Z,1.26
2018-01-14T03:05:40.817Z,1.18
2018-01-14T03:06:40.743Z,1.25
2018-01-14T03:07:40.659Z,1.30
2018-01-14T03:08:40.573Z,1.16
2018-01-14T03:09:40.480Z,1.25
2018-01-14T03:10:40.401Z,1.23
2018-01-14T03:11:40.309Z,1.16
2018-01-14T03:12:40.234Z,1.25
2018-01-14T03:13:40.143Z,1.16
2018-01-14T03:14:40.068Z,1.26
2018-01-14T03:15:39.977Z,1.23
2018-01-14T03:16:39.900Z,1.18
2018-01-14T03:17:39.799Z,1.18
2018-01-14T03:18:39.723Z,1.25
2018-01-14T03:19:39.634Z,1.20
2018-01-14T03:20:39.555Z,1.19
2018-01-14T03:21:39.463Z,1.15
2018-01-14T03:22:39.385Z,1.25
2018-01-14T03:23:39.293Z,1.15
2018-01-14T03:24:39.218Z,1.07
2018-01-14T03:25:39.119Z,1.20
2018-01-14T03:26:39.048Z,1.20
2018-01-14T03:27:38.954Z,1.10
2018-01-14T03:28:38.881Z,1.26
2018-01-14T03:29:38.784Z,1.10
2018-01-14T03:30:38.711Z,1.20
2018-01-14T03:31:38.624Z,1.23
2018-01-14T03:32:38.539Z,1.16
2018-01-14T03:33:38.445Z,1.20
2018-01-14T03:34:38.366Z,1.16
2018-01-14T03:35:38.280Z,1.18
2018-01-14T03:36:38.200Z,1.25
2018-01-14T03:37:38.105Z,1.18
2018-01-14T03:38:38.034Z,1.25
2018-01-14T03:39:37.937Z,1.23
2018-01-14T03:40:37.860Z,1.28
2018-01-14T03:41:37.764Z,1.22
2018-01-14T03:42:37.689Z,1.16
2018-01-14T03:43:37.595Z,1.18
2018-01-14T03:44:37.530Z,1.16
2018-01-14T03:45:37.424Z,1.19
2018-01-14T03:46:37.351Z,1.23
2018-01-14T03:47:37.257Z,1.18
2018-01-14T03:48:37.180Z,1.29
2018-01-14T03:49:37.089Z,1.20
2018-01-14T03:50:37.015Z,1.25
2018-01-14T03:51:36.920Z,1.26
2018-01-14T03:52:36.841Z,1.25
2018-01-14T03:53:36.748Z,1.23
2018-01-14T03:54:36.674Z,1.12
2018-01-14T03:55:36.572Z,1.11
2018-01-14T03:56:36.513Z,1.19
2018-01-14T03:57:36.408Z,1.15
2018-01-14T03:58:36.335Z,1.20
2018-01-14T03:59:36.243Z,1.20
2018-01-14T04:00:36.158Z,1.16
2018-01-14T04:01:36.070Z,1.18
2018-01-14T04:02:35.991Z,1.11
2018-01-14T04:03:35.901Z,1.16
2018-01-14T04:04:35.821Z,1.20
2018-01-14T04:05:35.732Z,1.15
2018-01-14T04:06:35.655Z,1.11
2018-01-14T04:07:35.559Z,1.16
2018-01-14T04:08:35.482Z,1.19
2018-01-14T04:09:35.389Z,1.18
2018-01-14T04:10:35.315Z,1.12
2018-01-14T04:11:35.220Z,1.18
2018-01-14T04:12:35.145Z,1.08
2018-01-14T04:13:35.053Z,1.12
2018-01-14T04:14:34.976Z,1.15
2018-01-14T04:15:34.877Z,1.18
2018-01-14T04:16:34.801Z,1.16
2018-01-14T04:17:34.712Z,1.04
2018-01-14T04:18:34.642Z,1.02
2018-01-14T04:19:34.535Z,1.16
2018-01-14T04:20:34.462Z,1.12
2018-01-14T04:21:34.372Z,1.18
2018-01-14T04:22:34.298Z,1.18
2018-01-14T04:23:34.203Z,1.11
2018-01-14T04:24:34.127Z,1.19
2018-01-14T04:25:34.031Z,1.22
2018-01-14T04:26:34.006Z,1.19
2018-01-14T04:27:33.864Z,1.16
2018-01-14T04:28:33.784Z,1.19
2018-01-14T04:29:33.696Z,1.23
2018-01-14T04:30:33.613Z,1.19
2018-01-14T04:31:33.523Z,1.22
2018-01-14T04:32:33.446Z,1.12
2018-01-14T04:33:33.359Z,1.18
2018-01-14T04:34:33.279Z,1.23
2018-01-14T04:35:33.186Z,1.16
2018-01-14T04:36:33.133Z,1.04
2018-01-14T04:37:33.020Z,1.11
2018-01-14T04:38:32.936Z,1.15
2018-01-14T04:39:32.843Z,1.15
2018-01-14T04:40:32.769Z,1.19
2018-01-14T04:41:32.676Z,1.18
2018-01-14T04:42:32.601Z,1.25
2018-01-14T04:43:32.505Z,1.05
2018-01-14T04:44:32.428Z,1.18
2018-01-14T04:45:32.335Z,1.18
2018-01-14T04:46:32.261Z,1.19
2018-01-14T04:47:32.166Z,1.22
2018-01-14T04:48:32.091Z,1.20
2018-01-14T04:49:31.998Z,1.30
2018-01-14T04:50:31.921Z,1.23
2018-01-14T04:51:31.825Z,1.26
2018-01-14T04:52:31.750Z,1.25
2018-01-14T04:53:31.655Z,1.16
2018-01-14T04:54:31.581Z,1.23
2018-01-14T04:55:31.488Z,1.26
2018-01-14T04:56:31.409Z,1.22
2018-01-14T04:57:31.319Z,1.28
2018-01-14T04:58:31.240Z,1.29
2018-01-14T04:59:31.156Z,1.23
2018-01-14T05:00:31.057Z,1.26
2018-01-14T05:01:30.986Z,1.22
2018-01-14T05:02:30.894Z,1.23
2018-01-14T05:03:30.815Z,1.28
2018-01-14T05:04:30.722Z,1.29
2018-01-14T05:05:30.645Z,1.25
2018-01-14T05:06:30.551Z,1.25
2018-01-14T05:07:30.485Z,1.22
2018-01-14T05:08:30.410Z,1.29
2018-01-14T05:09:30.308Z,1.30
2018-01-14T05:10:30.211Z,1.28
2018-01-14T05:11:30.134Z,1.28
2018-01-14T05:12:30.043Z,1.26
2018-01-14T05:13:29.966Z,1.26
2018-01-14T05:14:29.875Z,1.26
2018-01-14T05:15:29.795Z,1.23
2018-01-14T05:16:29.702Z,1.20
2018-01-14T05:17:29.626Z,1.16
2018-01-14T05:18:29.536Z,1.18
2018-01-14T05:19:29.456Z,1.23
2018-01-14T05:20:29.366Z,1.20
2018-01-14T05:21:29.295Z,1.23
2018-01-14T05:22:29.196Z,1.25
2018-01-14T05:23:29.117Z,1.20
2018-01-14T05:24:29.030Z,1.26
2018-01-14T05:25:28.948Z,1.22
2018-01-14T05:26:28.855Z,1.19
2018-01-14T05:27:28.782Z,1.18
2018-01-14T05:28:28.689Z,1.16
2018-01-14T05:29:28.613Z,1.25
2018-01-14T05:30:28.518Z,1.19
2018-01-14T05:31:28.436Z,1.20
2018-01-14T05:32:28.353Z,1.28
2018-01-14T05:33:28.281Z,1.25
2018-01-14T05:34:28.183Z,1.18
2018-01-14T05:35:28.096Z,1.29
2018-01-14T05:36:28.007Z,1.28
2018-01-14T05:37:27.934Z,1.30
2018-01-14T05:38:27.840Z,1.19
2018-01-14T05:39:27.764Z,1.23
2018-01-14T05:40:27.670Z,1.26
2018-01-14T05:41:27.589Z,1.23
2018-01-14T05:42:27.503Z,1.25
2018-01-14T05:43:27.460Z,1.20
2018-01-14T05:44:27.330Z,1.22
2018-01-14T05:45:27.259Z,1.28
2018-01-14T05:46:27.163Z,1.16
2018-01-14T05:47:27.082Z,1.12
2018-01-14T05:48:26.993Z,1.28
2018-01-14T05:49:26.914Z,1.19
2018-01-14T05:50:26.826Z,1.15
2018-01-14T05:51:26.749Z,1.12
2018-01-14T05:52:26.652Z,1.22
2018-01-14T05:53:26.624Z,1.23
2018-01-14T05:54:26.479Z,1.15
2018-01-14T05:55:26.413Z,1.12
2018-01-14T05:56:26.313Z,1.18
2018-01-14T05:57:26.242Z,1.20
2018-01-14T05:58:26.143Z,1.19
2018-01-14T05:59:26.065Z,1.18
2018-01-14T06:00:25.972Z,1.05
2018-01-14T06:01:25.898Z,1.12
2018-01-14T06:02:25.807Z,1.12
2018-01-14T06:03:25.722Z,1.20
2018-01-14T06:04:25.639Z,1.19
2018-01-14T06:05:25.558Z,1.16
2018-01-14T06:06:25.484Z,1.12
2018-01-14T06:07:25.388Z,1.19
2018-01-14T06:08:25.296Z,1.04
2018-01-14T06:09:25.214Z,1.19
2018-01-14T06:10:25.135Z,1.20
2018-01-14T06:11:25.047Z,1.22
2018-01-14T06:12:24.963Z,1.22
2018-01-14T06:13:24.881Z,1.12
2018-01-14T06:14:24.787Z,1.22
2018-01-14T06:15:24.706Z,1.11
2018-01-14T06:16:24.617Z,1.18
2018-01-14T06:17:24.539Z,1.22
2018-01-14T06:18:24.444Z,1.22
2018-01-14T06:19:24.370Z,1.28
2018-01-14T06:20:24.276Z,1.05
2018-01-14T06:21:24.200Z,1.15
2018-01-14T06:22:24.118Z,1.10
2018-01-14T06:23:24.029Z,1.04
2018-01-14T06:24:23.938Z,1.10
2018-01-14T06:25:23.865Z,1.12
2018-01-14T06:26:23.782Z,1.18
2018-01-14T06:27:23.691Z,1.12
2018-01-14T06:28:23.601Z,1.16
2018-01-14T06:29:23.524Z,1.12
2018-01-14T06:30:23.433Z,1.12
2018-01-14T06:31:23.350Z,1.01
2018-01-14T06:32:23.262Z,1.15
2018-01-14T06:33:23.183Z,1.15
2018-01-14T06:34:23.094Z,1.18
2018-01-14T06:35:23.013Z,1.18
2018-01-14T06:36:22.927Z,1.11
2018-01-14T06:37:22.853Z,1.19
2018-01-14T06:38:22.754Z,1.19
2018-01-14T06:39:22.681Z,1.20
2018-01-14T06:40:22.580Z,1.12
2018-01-14T06:41:23.016Z,1.16
2018-01-14T06:42:22.412Z,1.18
2018-01-14T06:43:22.336Z,1.25
2018-01-14T06:44:22.241Z,1.20
2018-01-14T06:45:22.167Z,1.11
2018-01-14T06:46:22.073Z,1.10
2018-01-14T06:47:21.993Z,1.11
2018-01-14T06:48:21.902Z,1.04
2018-01-14T06:49:21.825Z,1.05
2018-01-14T06:50:21.735Z,1.08
2018-01-14T06:51:21.656Z,1.05
2018-01-14T06:52:21.573Z,1.15
2018-01-14T06:53:21.492Z,1.11
2018-01-14T06:54:21.397Z,1.05
2018-01-14T06:55:21.318Z,1.04
2018-01-14T06:56:21.225Z,1.11
2018-01-14T06:57:21.151Z,1.19
2018-01-14T06:58:21.062Z,1.15
2018-01-14T06:59:20.980Z,1.11
2018-01-14T07:00:20.885Z,1.08
2018-01-14T07:01:20.809Z,1.16
2018-01-14T07:02:20.718Z,1.18
2018-01-14T07:03:20.647Z,1.20
2018-01-14T07:04:20.547Z,1.18
2018-01-14T07:05:20.474Z,1.16
2018-01-14T07:06:20.381Z,1.11
2018-01-14T07:07:20.296Z,1.07
2018-01-14T07:08:20.212Z,1.10
2018-01-14T07:09:20.134Z,1.16
2018-01-14T07:10:20.046Z,1.08
2018-01-14T07:11:19.961Z,1.15
2018-01-14T07:12:19.870Z,1.15
2018-01-14T07:13:19.792Z,1.12
2018-01-14T07:14:19.698Z,1.16
2018-01-14T07:15:19.618Z,1.18
2018-01-14T07:16:19.533Z,1.19
2018-01-14T07:17:19.450Z,1.10
2018-01-14T07:18:19.359Z,1.18
2018-01-14T07:19:19.280Z,1.07
2018-01-14T07:20:19.191Z,1.10
2018-01-14T07:21:19.121Z,1.07
2018-01-14T07:22:19.020Z,1.15
2018-01-14T07:23:18.945Z,1.04
2018-01-14T07:24:18.849Z,1.02
2018-01-14T07:25:18.770Z,1.01
2018-01-14T07:26:18.679Z,1.02
2018-01-14T07:27:18.603Z,1.01
2018-01-14T07:28:18.512Z,1.02
2018-01-14T07:29:18.433Z,1.04
2018-01-14T07:30:18.345Z,1.01
2018-01-14T07:31:19.081Z,1.02
2018-01-14T07:32:18.169Z,0.93
2018-01-14T07:33:18.093Z,1.04
2018-01-14T07:34:18.002Z,1.05
2018-01-14T07:35:17.922Z,0.93
2018-01-14T07:36:17.829Z,1.02
2018-01-14T07:37:17.781Z,0.98
2018-01-14T07:38:17.655Z,0.98
2018-01-14T07:39:17.599Z,1.02
2018-01-14T07:40:17.502Z,1.05
2018-01-14T07:41:17.409Z,0.98
2018-01-14T07:42:17.326Z,1.01
2018-01-14T07:43:17.242Z,1.00
2018-01-14T07:44:17.149Z,0.94
2018-01-14T07:45:17.073Z,0.93
2018-01-14T07:46:16.980Z,0.98
2018-01-14T07:47:16.906Z,0.98
2018-01-14T07:48:16.812Z,1.01
2018-01-14T07:49:16.730Z,1.04
2018-01-14T07:50:16.646Z,1.00
2018-01-14T07:51:16.568Z,1.04
2018-01-14T07:52:16.472Z,1.04
2018-01-14T07:53:17.089Z,1.07
2018-01-14T07:54:16.303Z,1.15
2018-01-14T07:55:16.234Z,1.07
2018-01-14T07:56:16.136Z,1.15
2018-01-14T07:57:16.059Z,1.11
2018-01-14T07:58:15.960Z,1.18
2018-01-14T07:59:15.883Z,1.22
2018-01-14T08:00:15.791Z,1.08
2018-01-14T08:01:16.583Z,1.10
2018-01-14T08:02:15.623Z,1.16
2018-01-14T08:03:15.624Z,1.23
2018-01-14T08:04:15.451Z,1.22
2018-01-14T08:05:15.382Z,1.18
2018-01-14T08:06:15.284Z,1.19
2018-01-14T08:07:15.205Z,1.18
2018-01-14T08:08:15.113Z,1.19
2018-01-14T08:09:15.036Z,1.05
2018-01-14T08:10:14.947Z,1.23
2018-01-14T08:11:14.866Z,1.19
2018-01-14T08:12:14.772Z,1.29
2018-01-14T08:13:14.698Z,1.28
2018-01-14T08:14:14.605Z,1.25
2018-01-14T08:15:14.524Z,1.29
2018-01-14T08:16:14.433Z,1.28
2018-01-14T08:17:14.354Z,1.28
2018-01-14T08:18:14.265Z,1.29
2018-01-14T08:19:14.184Z,1.41
2018-01-14T08:20:14.095Z,1.36
2018-01-14T08:21:14.016Z,1.37
2018-01-14T08:22:13.927Z,1.34
2018-01-14T08:23:13.848Z,1.28
2018-01-14T08:24:13.763Z,1.30
2018-01-14T08:25:13.678Z,1.29
2018-01-14T08:26:13.597Z,1.30
2018-01-14T08:27:13.505Z,1.23
2018-01-14T08:28:13.415Z,1.29
2018-01-14T08:29:13.360Z,1.29
2018-01-14T08:30:13.248Z,1.28
2018-01-14T08:31:13.164Z,1.29
2018-01-14T08:32:13.077Z,1.32
2018-01-14T08:33:13.005Z,1.44
2018-01-14T08:34:12.915Z,1.43
2018-01-14T08:35:12.828Z,1.38
2018-01-14T08:36:12.751Z,1.41
2018-01-14T08:37:12.656Z,1.52
2018-01-14T08:38:12.569Z,1.44
2018-01-14T08:39:12.493Z,1.55
2018-01-14T08:40:12.399Z,1.48
2018-01-14T08:41:12.321Z,1.52
2018-01-14T08:42:12.229Z,1.50
2018-01-14T08:43:12.150Z,1.52
2018-01-14T08:44:12.062Z,1.50
2018-01-14T08:45:11.987Z,1.61
2018-01-14T08:46:11.889Z,1.59
2018-01-14T08:47:11.811Z,1.55
2018-01-14T08:48:11.720Z,1.62
2018-01-14T08:49:11.646Z,1.61
2018-01-14T08:50:11.551Z,1.72
2018-01-14T08:51:11.472Z,1.64
2018-01-14T08:52:11.384Z,1.74
2018-01-14T08:53:11.303Z,1.68
2018-01-14T08:54:11.209Z,1.73
2018-01-14T08:55:11.142Z,1.68
2018-01-14T08:56:11.582Z,1.68
2018-01-14T08:57:10.973Z,1.74
2018-01-14T08:58:10.882Z,1.79
2018-01-14T08:59:10.799Z,1.77
2018-01-14T09:00:10.706Z,1.68
2018-01-14T09:01:10.629Z,1.76
2018-01-14T09:02:10.537Z,1.80
2018-01-14T09:03:10.460Z,1.83
2018-01-14T09:04:10.363Z,1.82
2018-01-14T09:05:10.291Z,1.84
2018-01-14T09:06:10.196Z,1.83
2018-01-14T09:07:10.120Z,1.82
2018-01-14T09:08:10.038Z,1.83
2018-01-14T09:09:09.964Z,1.90
2018-01-14T09:10:09.864Z,1.87
2018-01-14T09:11:09.782Z,1.86
2018-01-14T09:12:09.687Z,1.82
2018-01-14T09:13:09.608Z,1.84
2018-01-14T09:14:09.524Z,1.90
2018-01-14T09:15:09.445Z,1.84
2018-01-14T09:16:09.363Z,1.99
2018-01-14T09:17:09.271Z,1.94
2018-01-14T09:18:09.182Z,1.95
2018-01-14T09:19:09.118Z,1.95
2018-01-14T09:20:09.014Z,2.01
2018-01-14T09:21:08.935Z,2.01
2018-01-14T09:22:08.846Z,1.98
2018-01-14T09:23:08.766Z,1.99
2018-01-14T09:24:08.677Z,1.95
2018-01-14T09:25:08.599Z,2.02
2018-01-14T09:26:08.507Z,2.01
2018-01-14T09:27:08.428Z,1.95
2018-01-14T09:28:08.339Z,1.98
2018-01-14T09:29:09.087Z,1.99
2018-01-14T09:30:08.171Z,2.06
2018-01-14T09:31:08.092Z,2.03
2018-01-14T09:32:08.024Z,2.05
2018-01-14T09:33:07.938Z,2.12
2018-01-14T09:34:07.831Z,2.10
2018-01-14T09:35:07.753Z,2.12
2018-01-14T09:36:07.663Z,2.05
2018-01-14T09:37:07.587Z,2.09
2018-01-14T09:38:07.494Z,2.12
2018-01-14T09:39:07.416Z,2.06
2018-01-14T09:40:07.388Z,2.03
2018-01-14T09:41:07.240Z,2.14
2018-01-14T09:42:07.195Z,2.12
2018-01-14T09:43:07.069Z,2.09
2018-01-14T09:44:06.997Z,2.12
2018-01-14T09:45:06.905Z,2.06
2018-01-14T09:46:06.915Z,2.12
2018-01-14T09:47:06.732Z,2.17
2018-01-14T09:48:06.681Z,2.06
2018-01-14T09:49:06.565Z,2.17
2018-01-14T09:50:06.539Z,2.21
2018-01-14T09:51:06.394Z,2.17
2018-01-14T09:52:06.325Z,2.28
2018-01-14T09:53:06.225Z,2.34
2018-01-14T09:54:06.163Z,2.35
2018-01-14T09:55:06.053Z,2.37
2018-01-14T09:56:06.074Z,2.39
2018-01-14T09:57:05.887Z,2.41
2018-01-14T09:58:05.880Z,2.48
2018-01-14T09:59:05.721Z,2.48
2018-01-14T10:00:05.698Z,2.49
2018-01-14T10:01:05.564Z,2.55
2018-01-14T10:02:05.496Z,2.50
2018-01-14T10:03:05.377Z,2.49
2018-01-14T10:04:05.308Z,2.48
2018-01-14T10:05:05.214Z,2.56
2018-01-14T10:06:05.135Z,2.48
2018-01-14T10:07:05.049Z,2.60
2018-01-14T10:08:04.972Z,2.56
2018-01-14T10:09:04.881Z,2.68
2018-01-14T10:10:04.806Z,2.68
2018-01-14T10:11:04.711Z,2.67
2018-01-14T10:12:04.642Z,2.68
2018-01-14T10:13:04.538Z,2.66
2018-01-14T10:14:04.471Z,2.68
2018-01-14T10:15:04.376Z,2.81
2018-01-14T10:16:04.294Z,2.84
2018-01-14T10:17:04.202Z,2.85
2018-01-14T10:18:04.126Z,2.77
2018-01-14T10:19:04.033Z,2.81
2018-01-14T10:20:03.956Z,2.86
2018-01-14T10:21:03.866Z,2.77
2018-01-14T10:22:03.790Z,2.77
2018-01-14T10:23:03.695Z,2.81
2018-01-14T10:24:03.620Z,2.81
2018-01-14T10:25:03.527Z,2.73
2018-01-14T10:26:03.456Z,2.84
2018-01-14T10:27:03.359Z,2.86
2018-01-14T10:28:03.282Z,2.85
2018-01-14T10:29:03.190Z,2.84
2018-01-14T10:30:03.127Z,2.84
2018-01-14T10:31:03.025Z,2.81
2018-01-14T10:32:02.952Z,2.85
2018-01-14T10:33:02.856Z,2.84
2018-01-14T10:34:02.781Z,2.85
2018-01-14T10:35:02.684Z,2.84
2018-01-14T10:36:02.610Z,2.91
2018-01-14T10:37:02.515Z,2.81
2018-01-14T10:38:02.437Z,2.86
2018-01-14T10:39:02.348Z,2.88
2018-01-14T10:40:02.275Z,2.88
2018-01-14T10:41:02.186Z,2.86
2018-01-14T10:42:02.103Z,2.88
2018-01-14T10:43:02.016Z,2.85
2018-01-14T10:44:01.951Z,2.80
2018-01-14T10:45:01.881Z,2.84
2018-01-14T10:46:02.533Z,2.81
2018-01-14T10:47:01.674Z,2.85
2018-01-14T10:48:01.617Z,2.85
2018-01-14T10:49:01.510Z,2.86
2018-01-14T10:50:01.434Z,2.86
2018-01-14T10:51:01.340Z,2.86
2018-01-14T10:52:01.271Z,2.85
2018-01-14T10:53:01.181Z,2.81
2018-01-14T10:54:01.099Z,2.81
2018-01-14T10:55:01.011Z,2.80
2018-01-14T10:56:00.922Z,2.88
2018-01-14T10:57:00.846Z,2.85
2018-01-14T10:58:00.753Z,2.81
2018-01-14T10:59:00.677Z,2.78
2018-01-14T11:00:00.587Z,2.81
2018-01-14T11:01:00.537Z,2.84
2018-01-14T11:02:00.417Z,2.77
2018-01-14T11:03:00.338Z,2.89
2018-01-14T11:04:00.247Z,2.81
2018-01-14T11:05:00.167Z,2.84
2018-01-14T11:06:00.082Z,2.88
2018-01-14T11:07:00.003Z,2.89
2018-01-14T11:07:59.914Z,2.84
2018-01-14T11:08:59.883Z,2.95
2018-01-14T11:09:59.743Z,2.81
2018-01-14T11:10:59.676Z,2.96
2018-01-14T11:11:59.577Z,2.80
2018-01-14T11:12:59.500Z,2.78
2018-01-14T11:13:59.406Z,2.98
2018-01-14T11:14:59.331Z,2.95
2018-01-14T11:15:59.240Z,2.98
2018-01-14T11:16:59.165Z,2.93
2018-01-14T11:17:59.075Z,2.98
2018-01-14T11:18:58.994Z,3.03
2018-01-14T11:19:58.907Z,3.09
2018-01-14T11:20:58.827Z,2.96
2018-01-14T11:21:58.731Z,2.93
2018-01-14T11:22:58.663Z,2.99
2018-01-14T11:23:58.568Z,2.95
2018-01-14T11:24:58.505Z,2.99
2018-01-14T11:25:59.090Z,3.06
2018-01-14T11:26:58.313Z,3.03
2018-01-14T11:27:58.233Z,3.03
2018-01-14T11:28:58.152Z,2.98
2018-01-14T11:29:58.064Z,3.01
2018-01-14T11:30:57.993Z,3.04
2018-01-14T11:31:58.592Z,2.99
2018-01-14T11:32:57.924Z,3.06
2018-01-14T11:33:57.728Z,3.07
2018-01-14T11:34:57.736Z,2.98
2018-01-14T11:35:57.560Z,2.96
2018-01-14T11:36:57.525Z,3.01
2018-01-14T11:37:57.386Z,2.96
2018-01-14T11:38:57.335Z,3.01
2018-01-14T11:39:57.216Z,3.07
2018-01-14T11:40:57.148Z,2.99
2018-01-14T11:41:57.064Z,2.98
2018-01-14T11:42:57.053Z,3.06
2018-01-14T11:43:56.897Z,2.99
2018-01-14T11:44:56.808Z,3.09
2018-01-14T11:45:56.724Z,3.07
2018-01-14T11:46:56.643Z,3.03
2018-01-14T11:47:56.549Z,3.03
2018-01-14T11:48:56.478Z,3.07
2018-01-14T11:49:56.381Z,3.13
2018-01-14T11:50:56.307Z,3.03
2018-01-14T11:51:56.262Z,3.01
2018-01-14T11:52:56.136Z,3.09
2018-01-14T11:53:56.052Z,3.04
2018-01-14T11:54:55.968Z,3.10
2018-01-14T11:55:55.878Z,3.09
2018-01-14T11:56:55.802Z,3.13
2018-01-14T11:57:55.722Z,3.13
2018-01-14T11:58:55.635Z,3.06
2018-01-14T11:59:55.547Z,3.09
2018-01-14T12:00:55.467Z,3.10
2018-01-14T12:01:55.375Z,3.17
2018-01-14T12:02:55.297Z,3.11
2018-01-14T12:03:55.214Z,3.09
2018-01-14T12:04:55.132Z,3.13
2018-01-14T12:05:55.038Z,3.17
2018-01-14T12:06:54.961Z,3.17
2018-01-14T12:07:54.871Z,3.21
2018-01-14T12:08:54.795Z,3.11
2018-01-14T12:09:54.706Z,3.16
2018-01-14T12:10:54.630Z,3.11
2018-01-14T12:11:54.547Z,3.16
2018-01-14T12:12:54.459Z,3.16
2018-01-14T12:13:54.371Z,3.11
2018-01-14T12:14:54.328Z,3.27
2018-01-14T12:15:54.231Z,3.10
2018-01-14T12:16:54.127Z,3.14
2018-01-14T12:17:54.054Z,3.11
2018-01-14T12:18:53.959Z,3.17
2018-01-14T12:19:53.865Z,3.14
2018-01-14T12:20:53.789Z,3.19
2018-01-14T12:21:53.700Z,3.17
2018-01-14T12:22:53.623Z,3.14
2018-01-14T12:23:53.535Z,3.19
2018-01-14T12:24:53.457Z,3.13
2018-01-14T12:25:53.364Z,3.22
2018-01-14T12:26:53.285Z,3.25
2018-01-14T12:27:53.193Z,3.27
2018-01-14T12:28:53.118Z,3.22
2018-01-14T12:29:53.027Z,3.21
2018-01-14T12:30:52.959Z,3.14
2018-01-14T12:31:52.861Z,3.21
2018-01-14T12:32:52.782Z,3.32
2018-01-14T12:33:52.694Z,3.27
2018-01-14T12:34:52.618Z,3.31
2018-01-14T12:35:52.525Z,3.27
2018-01-14T12:36:52.448Z,3.27
2018-01-14T12:37:52.358Z,3.34
2018-01-14T12:38:52.278Z,3.31
2018-01-14T12:39:52.189Z,3.28
2018-01-14T12:40:52.114Z,3.35
2018-01-14T12:41:52.041Z,3.35
2018-01-14T12:42:51.944Z,3.43
2018-01-14T12:43:51.857Z,3.31
2018-01-14T12:44:51.781Z,3.34
2018-01-14T12:45:51.689Z,3.35
2018-01-14T12:46:51.617Z,3.32
2018-01-14T12:47:51.517Z,3.35
2018-01-14T12:48:51.446Z,3.31
2018-01-14T12:49:51.351Z,3.39
2018-01-14T12:50:51.283Z,3.35
2018-01-14T12:51:51.186Z,3.31
2018-01-14T12:52:51.106Z,3.32
2018-01-14T12:53:51.029Z,3.34
2018-01-14T12:54:50.930Z,3.34
2018-01-14T12:55:50.864Z,3.37
2018-01-14T12:56:50.765Z,3.39
2018-01-14T12:57:50.690Z,3.35
2018-01-14T12:58:50.609Z,3.34
2018-01-14T12:59:50.511Z,3.31
2018-01-14T13:00:50.458Z,3.35
2018-01-14T13:01:50.357Z,3.34
2018-01-14T13:02:50.275Z,3.32
2018-01-14T13:03:50.184Z,3.34
2018-01-14T13:04:50.105Z,3.31
2018-01-14T13:05:50.015Z,3.41
2018-01-14T13:06:50.039Z,3.31
2018-01-14T13:07:49.845Z,3.16
2018-01-14T13:08:49.835Z,3.22
2018-01-14T13:09:49.681Z,3.28
2018-01-14T13:10:49.590Z,3.34
2018-01-14T13:11:49.511Z,3.27
2018-01-14T13:12:49.499Z,3.31
2018-01-14T13:13:49.344Z,3.21
2018-01-14T13:14:49.307Z,3.28
2018-01-14T13:15:49.185Z,3.31
2018-01-14T13:16:49.098Z,3.34
2018-01-14T13:17:49.009Z,3.27